sensor_id;sensor_type;location;lat;lon;timestamp;pressure;altitude;pressure_sealevel;temperature;humidity
58775;BME280;44545;47.480;19.024;2023-04-06T03:12:08;100264.84;;;-0.87;74.79
58775;BME280;44545;47.480;19.024;2023-04-06T03:15:14;100264.84;;;-0.87;74.79
58775;BME280;44545;47.480;19.024;2023-04-06T03:18:21;100276.12;;;-1.55;76.95
58775;BME280;44545;47.480;19.024;2023-04-06T03:21:24;100273.16;;;-1.33;76.87
58775;BME280;44545;47.480;19.024;2023-04-06T03:24:27;100278.88;;;-1.18;76.19
58775;BME280;44545;47.480;19.024;2023-04-06T03:27:30;100276.19;;;-1.28;76.20
58775;BME280;44545;47.480;19.024;2023-04-06T03:30:34;100274.06;;;-1.24;75.95
58775;BME280;44545;47.480;19.024;2023-04-06T03:33:37;100280.97;;;-1.14;76.16
58775;BME280;44545;47.480;19.024;2023-04-06T03:36:39;100276.75;;;-1.40;75.26
58775;BME280;44545;47.480;19.024;2023-04-06T03:39:42;100286.09;;;-1.32;75.65
58775;BME280;44545;47.480;19.024;2023-04-06T03:42:45;100289.25;;;-1.43;76.19
58775;BME280;44545;47.480;19.024;2023-04-06T03:45:48;100279.62;;;-1.28;74.76
58775;BME280;44545;47.480;19.024;2023-04-06T03:48:50;100287.03;;;-1.14;74.00
58775;BME280;44545;47.480;19.024;2023-04-06T03:51:55;100283.22;;;-1.35;74.37
58775;BME280;44545;47.480;19.024;2023-04-06T03:54:58;100279.47;;;-1.38;74.06
58775;BME280;44545;47.480;19.024;2023-04-06T03:58:01;100279.78;;;-1.35;73.43
58775;BME280;44545;47.480;19.024;2023-04-06T04:01:03;100276.75;;;-1.40;71.98
58775;BME280;44545;47.480;19.024;2023-04-06T04:04:05;100281.28;;;-1.28;71.91
58775;BME280;44545;47.480;19.024;2023-04-06T04:07:08;100279.19;;;-1.41;72.05
58775;BME280;44545;47.480;19.024;2023-04-06T04:10:10;100281.28;;;-1.46;71.94
58775;BME280;44545;47.480;19.024;2023-04-06T04:13:12;100275.13;;;-1.39;73.28
58775;BME280;44545;47.480;19.024;2023-04-06T04:16:16;100273.31;;;-1.49;74.12
58775;BME280;44545;47.480;19.024;2023-04-06T04:19:18;100272.38;;;-1.49;74.13
58775;BME280;44545;47.480;19.024;2023-04-06T04:22:21;100271.59;;;-1.66;73.46
58775;BME280;44545;47.480;19.024;2023-04-06T04:25:23;100271.44;;;-1.76;74.13
58775;BME280;44545;47.480;19.024;2023-04-06T04:28:26;100272.22;;;-1.68;75.30
58775;BME280;44545;47.480;19.024;2023-04-06T04:31:29;100266.94;;;-1.70;74.94
58775;BME280;44545;47.480;19.024;2023-04-06T04:34:32;100266.22;;;-1.43;74.27
58775;BME280;44545;47.480;19.024;2023-04-06T04:37:35;100261.25;;;-1.50;74.36
58775;BME280;44545;47.480;19.024;2023-04-06T04:40:37;100262.31;;;-1.22;73.86
58775;BME280;44545;47.480;19.024;2023-04-06T04:43:40;100252.06;;;-1.04;73.04
58775;BME280;44545;47.480;19.024;2023-04-06T04:46:44;100252.66;;;-0.81;72.27
58775;BME280;44545;47.480;19.024;2023-04-06T04:49:48;100242.25;;;-0.74;71.39
58775;BME280;44545;47.480;19.024;2023-04-06T04:52:51;100238.91;;;-0.55;70.51
58775;BME280;44545;47.480;19.024;2023-04-06T04:55:54;100236.13;;;-0.48;70.64
58775;BME280;44545;47.480;19.024;2023-04-06T04:58:57;100241.03;;;-0.24;70.29
58775;BME280;44545;47.480;19.024;2023-04-06T05:02:00;100245.44;;;0.05;68.39
58775;BME280;44545;47.480;19.024;2023-04-06T05:05:04;100247.94;;;0.14;67.85
58775;BME280;44545;47.480;19.024;2023-04-06T05:08:06;100241.91;;;0.41;66.49
58775;BME280;44545;47.480;19.024;2023-04-06T05:11:10;100239.28;;;0.69;63.92
58775;BME280;44545;47.480;19.024;2023-04-06T05:14:12;100243.97;;;0.83;62.26
58775;BME280;44545;47.480;19.024;2023-04-06T05:17:18;100237.97;;;0.63;61.00
58775;BME280;44545;47.480;19.024;2023-04-06T05:20:21;100223.66;;;0.57;61.00
58775;BME280;44545;47.480;19.024;2023-04-06T05:23:24;100220.75;;;0.62;61.70
58775;BME280;44545;47.480;19.024;2023-04-06T05:26:26;100215.78;;;0.93;61.21
58775;BME280;44545;47.480;19.024;2023-04-06T05:29:30;100202.91;;;1.41;59.37
58775;BME280;44545;47.480;19.024;2023-04-06T05:32:33;100211.69;;;2.13;56.57
58775;BME280;44545;47.480;19.024;2023-04-06T05:35:36;100198.19;;;2.26;55.93
58775;BME280;44545;47.480;19.024;2023-04-06T05:38:41;100204.78;;;2.86;54.36
58775;BME280;44545;47.480;19.024;2023-04-06T05:41:44;100201.91;;;4.01;51.48
58775;BME280;44545;47.480;19.024;2023-04-06T05:44:47;100188.56;;;4.52;47.97
58775;BME280;44545;47.480;19.024;2023-04-06T05:47:50;100191.16;;;4.52;47.18
58775;BME280;44545;47.480;19.024;2023-04-06T05:50:54;100185.41;;;4.45;47.39
58775;BME280;44545;47.480;19.024;2023-04-06T05:54:00;100186.41;;;5.53;43.96
58775;BME280;44545;47.480;19.024;2023-04-06T05:57:03;100178.25;;;5.35;44.07
58775;BME280;44545;47.480;19.024;2023-04-06T06:00:06;100179.81;;;5.21;43.92
58775;BME280;44545;47.480;19.024;2023-04-06T06:03:14;100179.87;;;5.58;43.05
58775;BME280;44545;47.480;19.024;2023-04-06T06:06:20;100179.69;;;5.80;41.93
58775;BME280;44545;47.480;19.024;2023-04-06T06:09:23;100165.91;;;6.56;40.98
58775;BME280;44545;47.480;19.024;2023-04-06T06:12:26;100167.81;;;5.70;41.28
58775;BME280;44545;47.480;19.024;2023-04-06T06:15:29;100167.31;;;6.51;41.43
58775;BME280;44545;47.480;19.024;2023-04-06T06:18:32;100169.28;;;5.92;41.02
58775;BME280;44545;47.480;19.024;2023-04-06T06:21:34;100168.66;;;5.82;41.90
58775;BME280;44545;47.480;19.024;2023-04-06T06:24:39;100168.47;;;6.04;41.72
58775;BME280;44545;47.480;19.024;2023-04-06T06:27:41;100158.16;;;6.69;40.81
58775;BME280;44545;47.480;19.024;2023-04-06T06:30:45;100153.16;;;7.12;39.31
58775;BME280;44545;47.480;19.024;2023-04-06T06:33:50;100148.16;;;7.15;38.76
58775;BME280;44545;47.480;19.024;2023-04-06T06:36:53;100137.12;;;7.88;36.00
58775;BME280;44545;47.480;19.024;2023-04-06T06:39:57;100135.81;;;7.81;34.80
58775;BME280;44545;47.480;19.024;2023-04-06T06:42:59;100134.72;;;8.35;34.25
58775;BME280;44545;47.480;19.024;2023-04-06T06:46:03;100129.75;;;8.38;34.03
58775;BME280;44545;47.480;19.024;2023-04-06T06:49:05;100139.59;;;7.58;35.28
58775;BME280;44545;47.480;19.024;2023-04-06T06:52:07;100127.53;;;8.01;33.31
58775;BME280;44545;47.480;19.024;2023-04-06T06:55:14;100123.09;;;8.73;33.72
58775;BME280;44545;47.480;19.024;2023-04-06T06:58:18;100127.69;;;8.77;32.81
58775;BME280;44545;47.480;19.024;2023-04-06T07:01:22;100129.41;;;8.62;33.33
58775;BME280;44545;47.480;19.024;2023-04-06T07:04:25;100133.50;;;8.73;33.17
58775;BME280;44545;47.480;19.024;2023-04-06T07:07:27;100133.28;;;7.96;33.06
58775;BME280;44545;47.480;19.024;2023-04-06T07:10:30;100127.19;;;8.25;33.19
58775;BME280;44545;47.480;19.024;2023-04-06T07:13:32;100129.03;;;8.56;33.14
58775;BME280;44545;47.480;19.024;2023-04-06T07:16:35;100132.88;;;8.77;32.53
58775;BME280;44545;47.480;19.024;2023-04-06T07:19:39;100140.91;;;9.11;32.09
58775;BME280;44545;47.480;19.024;2023-04-06T07:22:43;100123.62;;;8.97;32.11
58775;BME280;44545;47.480;19.024;2023-04-06T07:25:46;100126.69;;;8.60;32.59
58775;BME280;44545;47.480;19.024;2023-04-06T07:28:49;100144.72;;;8.42;33.05
58775;BME280;44545;47.480;19.024;2023-04-06T07:31:52;100132.41;;;8.99;32.25
58775;BME280;44545;47.480;19.024;2023-04-06T07:34:55;100136.69;;;8.99;32.41
58775;BME280;44545;47.480;19.024;2023-04-06T07:37:58;100133.16;;;9.13;31.61
58775;BME280;44545;47.480;19.024;2023-04-06T07:41:00;100122.34;;;9.05;31.80
58775;BME280;44545;47.480;19.024;2023-04-06T07:44:06;100124.63;;;9.16;31.86
58775;BME280;44545;47.480;19.024;2023-04-06T07:47:09;100120.78;;;8.78;31.94
58775;BME280;44545;47.480;19.024;2023-04-06T07:50:12;100123.28;;;8.32;32.44
58775;BME280;44545;47.480;19.024;2023-04-06T07:53:14;100125.88;;;7.74;33.30
58775;BME280;44545;47.480;19.024;2023-04-06T07:56:19;100122.97;;;7.97;32.91
58775;BME280;44545;47.480;19.024;2023-04-06T07:59:23;100119.25;;;8.22;33.43
58775;BME280;44545;47.480;19.024;2023-04-06T08:02:25;100123.03;;;7.84;33.32
58775;BME280;44545;47.480;19.024;2023-04-06T08:05:28;100131.09;;;7.32;34.41
58775;BME280;44545;47.480;19.024;2023-04-06T08:08:31;100121.50;;;7.45;34.77
58775;BME280;44545;47.480;19.024;2023-04-06T08:11:34;100121.91;;;7.66;34.67
58775;BME280;44545;47.480;19.024;2023-04-06T08:14:36;100122.28;;;8.15;33.65
58775;BME280;44545;47.480;19.024;2023-04-06T08:17:38;100126.88;;;7.48;34.71
58775;BME280;44545;47.480;19.024;2023-04-06T08:20:41;100128.37;;;8.30;33.85
58775;BME280;44545;47.480;19.024;2023-04-06T08:23:43;100120.56;;;8.00;34.17
58775;BME280;44545;47.480;19.024;2023-04-06T08:26:46;100120.22;;;8.24;33.39
58775;BME280;44545;47.480;19.024;2023-04-06T08:29:49;100125.88;;;7.74;34.49
58775;BME280;44545;47.480;19.024;2023-04-06T08:32:51;100122.75;;;7.51;34.92
58775;BME280;44545;47.480;19.024;2023-04-06T08:35:54;100119.91;;;7.62;34.38
58775;BME280;44545;47.480;19.024;2023-04-06T08:38:56;100112.53;;;7.68;34.25
58775;BME280;44545;47.480;19.024;2023-04-06T08:42:00;100123.50;;;7.64;35.24
58775;BME280;44545;47.480;19.024;2023-04-06T08:45:05;100113.91;;;7.48;34.91
58775;BME280;44545;47.480;19.024;2023-04-06T08:48:08;100109.75;;;7.79;34.27
58775;BME280;44545;47.480;19.024;2023-04-06T08:51:11;100095.19;;;8.39;33.38
58775;BME280;44545;47.480;19.024;2023-04-06T08:54:14;100095.47;;;8.90;32.80
58775;BME280;44545;47.480;19.024;2023-04-06T08:57:17;100091.03;;;9.51;31.74
58775;BME280;44545;47.480;19.024;2023-04-06T09:00:21;100094.06;;;9.75;30.91
58775;BME280;44545;47.480;19.024;2023-04-06T09:03:25;100093.91;;;10.23;31.08
58775;BME280;44545;47.480;19.024;2023-04-06T09:06:29;100077.34;;;11.11;29.42
58775;BME280;44545;47.480;19.024;2023-04-06T09:09:32;100070.16;;;12.22;26.98
58775;BME280;44545;47.480;19.024;2023-04-06T09:12:35;100080.38;;;11.57;27.64
58775;BME280;44545;47.480;19.024;2023-04-06T09:15:37;100082.34;;;11.06;28.37
58775;BME280;44545;47.480;19.024;2023-04-06T09:18:40;100064.75;;;11.78;28.64
58775;BME280;44545;47.480;19.024;2023-04-06T09:21:42;100060.41;;;11.59;27.68
58775;BME280;44545;47.480;19.024;2023-04-06T09:24:51;100059.66;;;11.23;27.72
58775;BME280;44545;47.480;19.024;2023-04-06T09:28:02;100062.22;;;10.85;28.87
58775;BME280;44545;47.480;19.024;2023-04-06T09:31:05;100056.78;;;11.36;28.07
58775;BME280;44545;47.480;19.024;2023-04-06T09:34:07;100061.34;;;10.85;29.37
58775;BME280;44545;47.480;19.024;2023-04-06T09:37:14;100048.59;;;10.73;29.65
58775;BME280;44545;47.480;19.024;2023-04-06T09:40:16;100050.09;;;11.23;28.37
58775;BME280;44545;47.480;19.024;2023-04-06T09:43:25;100041.91;;;10.43;29.46
58775;BME280;44545;47.480;19.024;2023-04-06T09:46:34;100060.69;;;9.68;30.13
58775;BME280;44545;47.480;19.024;2023-04-06T09:49:58;100044.13;;;10.89;28.72
58775;BME280;44545;47.480;19.024;2023-04-06T09:53:01;100046.41;;;11.00;28.68
58775;BME280;44545;47.480;19.024;2023-04-06T09:56:06;100041.25;;;11.39;27.29
58775;BME280;44545;47.480;19.024;2023-04-06T09:59:22;100033.00;;;11.69;27.31
58775;BME280;44545;47.480;19.024;2023-04-06T10:02:58;100022.84;;;13.48;25.28
58775;BME280;44545;47.480;19.024;2023-04-06T10:06:05;100025.44;;;15.03;24.13
58775;BME280;44545;47.480;19.024;2023-04-06T10:09:08;100029.09;;;14.26;24.66
58775;BME280;44545;47.480;19.024;2023-04-06T10:12:12;100023.25;;;14.09;24.38
58775;BME280;44545;47.480;19.024;2023-04-06T10:15:15;100012.56;;;14.83;23.89
58775;BME280;44545;47.480;19.024;2023-04-06T10:18:18;100017.94;;;15.75;22.71
58775;BME280;44545;47.480;19.024;2023-04-06T10:21:24;100011.75;;;15.13;22.84
58775;BME280;44545;47.480;19.024;2023-04-06T10:24:28;100008.72;;;14.45;22.98
58775;BME280;44545;47.480;19.024;2023-04-06T10:27:32;100005.28;;;15.02;23.85
58775;BME280;44545;47.480;19.024;2023-04-06T10:30:41;100008.38;;;16.47;21.16
58775;BME280;44545;47.480;19.024;2023-04-06T10:34:00;99990.81;;;17.22;20.81
58775;BME280;44545;47.480;19.024;2023-04-06T10:37:16;99988.97;;;16.42;20.29
58775;BME280;44545;47.480;19.024;2023-04-06T10:40:24;99995.34;;;14.37;22.56
58775;BME280;44545;47.480;19.024;2023-04-06T10:43:33;99981.38;;;14.64;22.30
58775;BME280;44545;47.480;19.024;2023-04-06T10:46:36;99986.66;;;14.13;23.74
58775;BME280;44545;47.480;19.024;2023-04-06T10:49:39;99981.16;;;14.58;23.14
58775;BME280;44545;47.480;19.024;2023-04-06T10:52:44;99990.56;;;13.98;24.12
58775;BME280;44545;47.480;19.024;2023-04-06T10:55:47;99982.38;;;13.89;23.93
58775;BME280;44545;47.480;19.024;2023-04-06T10:58:52;99981.16;;;13.79;23.72
58775;BME280;44545;47.480;19.024;2023-04-06T11:01:55;99987.16;;;11.95;25.50
58775;BME280;44545;47.480;19.024;2023-04-06T11:04:58;99987.06;;;11.93;25.72
58775;BME280;44545;47.480;19.024;2023-04-06T11:08:01;99987.44;;;12.45;25.78
58775;BME280;44545;47.480;19.024;2023-04-06T11:11:11;99982.19;;;12.45;25.51
58775;BME280;44545;47.480;19.024;2023-04-06T11:14:18;99976.41;;;12.74;25.38
58775;BME280;44545;47.480;19.024;2023-04-06T11:17:30;99983.53;;;12.35;24.97
58775;BME280;44545;47.480;19.024;2023-04-06T11:20:33;99976.94;;;12.22;25.23
58775;BME280;44545;47.480;19.024;2023-04-06T11:23:35;99982.62;;;12.55;24.17
58775;BME280;44545;47.480;19.024;2023-04-06T11:26:39;99981.81;;;12.13;24.90
58775;BME280;44545;47.480;19.024;2023-04-06T11:29:42;99977.13;;;12.27;25.13
58775;BME280;44545;47.480;19.024;2023-04-06T11:32:45;99978.91;;;12.28;25.22
58775;BME280;44545;47.480;19.024;2023-04-06T11:35:48;99967.25;;;11.79;25.33
58775;BME280;44545;47.480;19.024;2023-04-06T11:38:51;99965.41;;;11.56;25.80
58775;BME280;44545;47.480;19.024;2023-04-06T11:41:57;99962.81;;;12.40;25.33
58775;BME280;44545;47.480;19.024;2023-04-06T11:45:07;99962.44;;;12.30;26.12
58775;BME280;44545;47.480;19.024;2023-04-06T11:48:19;99975.97;;;11.59;27.26
58775;BME280;44545;47.480;19.024;2023-04-06T11:51:22;99966.34;;;11.58;26.37
58775;BME280;44545;47.480;19.024;2023-04-06T11:54:35;99960.91;;;11.73;25.93
58775;BME280;44545;47.480;19.024;2023-04-06T11:57:40;99956.31;;;12.51;27.19
58775;BME280;44545;47.480;19.024;2023-04-06T12:00:43;99955.94;;;12.42;26.66
58775;BME280;44545;47.480;19.024;2023-04-06T12:03:50;99943.81;;;12.00;26.69
58775;BME280;44545;47.480;19.024;2023-04-06T12:06:53;99947.47;;;11.44;27.19
58775;BME280;44545;47.480;19.024;2023-04-06T12:09:56;99961.91;;;10.59;29.07
58775;BME280;44545;47.480;19.024;2023-04-06T12:12:58;99953.69;;;10.70;28.43
58775;BME280;44545;47.480;19.024;2023-04-06T12:16:01;99958.22;;;10.02;28.98
58775;BME280;44545;47.480;19.024;2023-04-06T12:19:03;99955.22;;;9.76;30.73
58775;BME280;44545;47.480;19.024;2023-04-06T12:22:06;99950.41;;;9.50;29.78
58775;BME280;44545;47.480;19.024;2023-04-06T12:25:08;99963.87;;;9.59;31.29
58775;BME280;44545;47.480;19.024;2023-04-06T12:28:11;99957.75;;;8.92;30.62
58775;BME280;44545;47.480;19.024;2023-04-06T12:31:15;99950.28;;;9.14;30.29
58775;BME280;44545;47.480;19.024;2023-04-06T12:34:18;99956.19;;;9.28;30.21
58775;BME280;44545;47.480;19.024;2023-04-06T12:37:20;99950.75;;;9.74;29.84
58775;BME280;44545;47.480;19.024;2023-04-06T12:40:23;99943.19;;;9.96;29.59
58775;BME280;44545;47.480;19.024;2023-04-06T12:43:25;99944.44;;;10.39;29.03
58775;BME280;44545;47.480;19.024;2023-04-06T12:46:29;99967.47;;;10.13;30.07
58775;BME280;44545;47.480;19.024;2023-04-06T12:49:34;99961.81;;;10.04;30.75
58775;BME280;44545;47.480;19.024;2023-04-06T12:52:37;99946.09;;;9.34;30.87
58775;BME280;44545;47.480;19.024;2023-04-06T12:55:39;99943.25;;;9.80;30.46
58775;BME280;44545;47.480;19.024;2023-04-06T12:58:42;99944.41;;;10.03;30.26
58775;BME280;44545;47.480;19.024;2023-04-06T13:01:45;99938.06;;;9.98;30.14
58775;BME280;44545;47.480;19.024;2023-04-06T13:04:49;99940.44;;;9.93;30.06
58775;BME280;44545;47.480;19.024;2023-04-06T13:07:51;99942.31;;;9.96;30.16
58775;BME280;44545;47.480;19.024;2023-04-06T13:10:54;99939.59;;;10.29;29.25
58775;BME280;44545;47.480;19.024;2023-04-06T13:13:56;99936.66;;;10.58;29.50
58775;BME280;44545;47.480;19.024;2023-04-06T13:16:59;99937.81;;;11.02;28.36
58775;BME280;44545;47.480;19.024;2023-04-06T13:20:02;99935.25;;;10.11;29.13
58775;BME280;44545;47.480;19.024;2023-04-06T13:23:05;99939.06;;;10.36;29.89
58775;BME280;44545;47.480;19.024;2023-04-06T13:26:08;99935.53;;;9.99;29.84
58775;BME280;44545;47.480;19.024;2023-04-06T13:29:10;99928.25;;;10.10;30.72
58775;BME280;44545;47.480;19.024;2023-04-06T13:32:12;99928.69;;;9.84;30.20
58775;BME280;44545;47.480;19.024;2023-04-06T13:35:16;99936.81;;;9.39;31.49
58775;BME280;44545;47.480;19.024;2023-04-06T13:38:19;99937.09;;;9.11;32.96
58775;BME280;44545;47.480;19.024;2023-04-06T13:41:24;99943.94;;;9.25;33.17
58775;BME280;44545;47.480;19.024;2023-04-06T13:44:28;99932.63;;;9.08;32.71
58775;BME280;44545;47.480;19.024;2023-04-06T13:47:30;99933.88;;;9.49;33.50
58775;BME280;44545;47.480;19.024;2023-04-06T13:50:34;99932.87;;;9.64;32.74
58775;BME280;44545;47.480;19.024;2023-04-06T13:53:38;99927.34;;;9.40;33.29
58775;BME280;44545;47.480;19.024;2023-04-06T13:56:42;99930.72;;;9.39;32.61
58775;BME280;44545;47.480;19.024;2023-04-06T13:59:45;99936.59;;;8.85;35.04
58775;BME280;44545;47.480;19.024;2023-04-06T14:02:47;99928.66;;;8.66;34.77
58775;BME280;44545;47.480;19.024;2023-04-06T14:05:49;99924.59;;;8.87;35.33
58775;BME280;44545;47.480;19.024;2023-04-06T14:08:52;99914.09;;;8.70;34.61
58775;BME280;44545;47.480;19.024;2023-04-06T14:11:54;99917.28;;;8.97;34.25
58775;BME280;44545;47.480;19.024;2023-04-06T14:14:57;99899.41;;;9.03;34.45
58775;BME280;44545;47.480;19.024;2023-04-06T14:17:59;99910.88;;;9.06;33.65
58775;BME280;44545;47.480;19.024;2023-04-06T14:21:02;99912.41;;;9.03;34.17
58775;BME280;44545;47.480;19.024;2023-04-06T14:24:08;99908.75;;;8.99;34.48
58775;BME280;44545;47.480;19.024;2023-04-06T14:27:11;99912.22;;;8.83;34.45
58775;BME280;44545;47.480;19.024;2023-04-06T14:30:15;99920.13;;;8.85;34.37
58775;BME280;44545;47.480;19.024;2023-04-06T14:33:17;99922.88;;;8.88;35.50
58775;BME280;44545;47.480;19.024;2023-04-06T14:36:19;99930.94;;;8.93;34.97
58775;BME280;44545;47.480;19.024;2023-04-06T14:39:22;99925.69;;;8.60;35.78
58775;BME280;44545;47.480;19.024;2023-04-06T14:42:24;99928.47;;;8.63;35.23
58775;BME280;44545;47.480;19.024;2023-04-06T14:45:27;99931.47;;;8.71;35.29
58775;BME280;44545;47.480;19.024;2023-04-06T14:48:29;99934.91;;;8.70;35.94
58775;BME280;44545;47.480;19.024;2023-04-06T14:51:36;99937.22;;;8.49;36.65
58775;BME280;44545;47.480;19.024;2023-04-06T14:54:38;99941.16;;;8.42;36.67
58775;BME280;44545;47.480;19.024;2023-04-06T14:57:41;99943.44;;;8.21;38.90
58775;BME280;44545;47.480;19.024;2023-04-06T15:00:43;99950.44;;;8.07;39.63
58775;BME280;44545;47.480;19.024;2023-04-06T15:03:45;99954.41;;;7.86;40.12
58775;BME280;44545;47.480;19.024;2023-04-06T15:06:48;99961.03;;;7.80;40.87
58775;BME280;44545;47.480;19.024;2023-04-06T15:09:50;99967.28;;;7.84;41.82
58775;BME280;44545;47.480;19.024;2023-04-06T15:12:53;99969.87;;;7.40;46.20
58775;BME280;44545;47.480;19.024;2023-04-06T15:15:55;99979.97;;;7.07;47.28
58775;BME280;44545;47.480;19.024;2023-04-06T15:18:58;99965.56;;;6.97;48.60
